createdAt,value
2022-12-17T00:02:50.677Z,65.50
2022-12-17T00:06:13.669Z,63.35
2022-12-17T00:09:36.288Z,65.70
2022-12-17T00:12:59.288Z,66.13
2022-12-17T00:16:22.172Z,64.15
2022-12-17T00:19:45.186Z,64.18
2022-12-17T00:23:07.935Z,62.63
2022-12-17T00:26:30.920Z,66.05
2022-12-17T00:29:53.807Z,69.43
2022-12-17T00:33:18.121Z,66.95
2022-12-17T00:36:40.735Z,66.30
2022-12-17T00:40:03.436Z,66.00
2022-12-17T00:43:29.382Z,65.85
2022-12-17T00:46:52.366Z,66.75
2022-12-17T00:50:15.004Z,69.43
2022-12-17T00:53:38.123Z,67.88
2022-12-17T00:57:01.020Z,66.72
2022-12-17T01:00:24.614Z,64.22
2022-12-17T01:03:47.704Z,66.55
2022-12-17T01:07:10.382Z,66.70
2022-12-17T01:10:34.979Z,64.75
2022-12-17T01:13:57.623Z,64.28
2022-12-17T01:17:20.604Z,74.90
2022-12-17T01:20:47.752Z,71.75
2022-12-17T01:24:10.079Z,72.25
2022-12-17T01:27:32.941Z,72.90
2022-12-17T01:30:56.905Z,71.95
2022-12-17T01:34:19.662Z,68.05
2022-12-17T01:37:42.307Z,70.65
2022-12-17T01:41:10.776Z,69.93
2022-12-17T01:45:02.089Z,64.63
2022-12-17T01:48:32.220Z,73.15
2022-12-17T01:51:55.133Z,71.07
2022-12-17T01:55:17.951Z,72.78
2022-12-17T01:58:41.023Z,64.00
2022-12-17T02:02:03.764Z,66.32
2022-12-17T02:05:26.512Z,66.65
2022-12-17T02:09:02.825Z,69.13
2022-12-17T02:12:51.490Z,65.80
2022-12-17T02:16:21.684Z,66.13
2022-12-17T02:20:23.428Z,68.63
2022-12-17T02:24:27.897Z,65.65
2022-12-17T02:27:51.948Z,67.90
2022-12-17T02:31:16.329Z,69.47
2022-12-17T02:34:39.165Z,66.70
2022-12-17T02:38:08.194Z,64.93
2022-12-17T02:41:36.809Z,64.22
2022-12-17T02:45:01.127Z,70.38
2022-12-17T02:48:26.207Z,67.22
2022-12-17T02:52:05.784Z,69.65
2022-12-17T02:55:28.278Z,65.65
2022-12-17T02:58:51.043Z,70.50
2022-12-17T03:02:13.966Z,63.30
2022-12-17T03:05:45.132Z,70.55
2022-12-17T03:09:08.715Z,70.97
2022-12-17T03:12:31.359Z,63.85
2022-12-17T03:15:54.135Z,63.72
2022-12-17T03:19:17.443Z,70.45
2022-12-17T03:22:39.939Z,66.90
2022-12-17T03:26:02.695Z,69.70
2022-12-17T03:29:25.308Z,67.32
2022-12-17T03:32:48.065Z,71.23
2022-12-17T03:36:12.496Z,76.80
2022-12-17T03:39:35.234Z,72.72
2022-12-17T03:42:58.000Z,71.50
2022-12-17T03:46:20.906Z,66.30
2022-12-17T03:49:43.589Z,66.65
2022-12-17T03:53:06.189Z,66.63
2022-12-17T03:56:28.811Z,71.68
2022-12-17T03:59:51.742Z,67.75
2022-12-17T04:03:14.676Z,65.40
2022-12-17T04:06:37.174Z,68.57
2022-12-17T04:09:59.749Z,72.10
2022-12-17T04:13:22.284Z,74.57
2022-12-17T04:16:45.034Z,65.37
2022-12-17T04:20:07.928Z,67.43
2022-12-17T04:23:30.752Z,67.47
2022-12-17T04:26:53.795Z,63.58
2022-12-17T04:30:19.080Z,69.95
2022-12-17T04:33:41.906Z,73.32
2022-12-17T04:37:04.751Z,75.68
2022-12-17T04:40:28.187Z,78.03
2022-12-17T04:43:50.905Z,80.15
2022-12-17T04:47:13.715Z,68.93
2022-12-17T04:50:36.294Z,65.77
2022-12-17T04:53:59.007Z,62.27
2022-12-17T04:57:21.643Z,67.43
2022-12-17T05:00:44.417Z,70.57
2022-12-17T05:04:07.031Z,72.37
2022-12-17T05:07:30.041Z,69.03
2022-12-17T05:10:53.002Z,64.28
2022-12-17T05:14:15.785Z,65.78
2022-12-17T05:17:38.734Z,71.30
2022-12-17T05:21:01.451Z,66.88
2022-12-17T05:24:24.054Z,74.57
2022-12-17T05:27:46.781Z,71.25
2022-12-17T05:31:11.817Z,73.30
2022-12-17T05:34:53.845Z,65.40
2022-12-17T05:38:27.315Z,72.90
2022-12-17T05:41:49.984Z,71.13
2022-12-17T05:45:13.058Z,64.80
2022-12-17T05:48:35.793Z,65.45
2022-12-17T05:51:58.518Z,69.18
2022-12-17T05:55:21.248Z,63.50
2022-12-17T05:58:44.153Z,62.35
2022-12-17T06:02:07.195Z,61.88
2022-12-17T06:05:30.652Z,62.53
2022-12-17T06:08:53.344Z,59.42
2022-12-17T06:12:15.983Z,64.28
2022-12-17T06:15:38.826Z,61.08
2022-12-17T06:19:01.655Z,59.85
2022-12-17T06:22:24.178Z,65.90
2022-12-17T06:25:47.083Z,66.20
2022-12-17T06:29:09.744Z,62.55
2022-12-17T06:32:32.620Z,66.05
2022-12-17T06:35:55.679Z,70.00
2022-12-17T06:39:18.343Z,73.25
2022-12-17T06:42:41.165Z,63.53
2022-12-17T06:46:03.792Z,69.95
2022-12-17T06:49:26.637Z,69.25
2022-12-17T06:52:49.309Z,73.27
2022-12-17T06:56:11.958Z,75.90
2022-12-17T06:59:34.681Z,70.87
2022-12-17T07:02:57.507Z,73.57
2022-12-17T07:06:20.151Z,65.40
2022-12-17T07:09:42.761Z,71.05
2022-12-17T07:13:05.384Z,81.18
2022-12-17T07:16:28.111Z,76.53
2022-12-17T07:19:50.787Z,82.80
2022-12-17T07:23:16.355Z,79.60
2022-12-17T07:26:39.229Z,87.00
2022-12-17T07:30:02.092Z,91.15
2022-12-17T07:33:26.132Z,101.72
2022-12-17T07:36:48.892Z,98.03
2022-12-17T07:40:11.490Z,104.43
2022-12-17T07:43:35.601Z,101.05
2022-12-17T07:46:58.450Z,98.47
2022-12-17T07:50:21.283Z,103.80
2022-12-17T07:53:44.130Z,114.40
2022-12-17T07:57:07.021Z,108.95
2022-12-17T08:00:30.157Z,111.18
2022-12-17T08:03:53.050Z,110.93
2022-12-17T08:07:15.892Z,111.45
2022-12-17T08:10:38.779Z,110.50
2022-12-17T08:14:01.608Z,121.05
2022-12-17T08:17:24.557Z,107.43
2022-12-17T08:20:47.377Z,117.45
2022-12-17T08:24:10.355Z,105.07
2022-12-17T08:27:33.325Z,104.55
2022-12-17T08:30:56.171Z,107.70
2022-12-17T08:34:18.728Z,104.30
2022-12-17T08:37:41.828Z,101.88
2022-12-17T08:41:04.907Z,100.93
2022-12-17T08:44:27.884Z,95.82
2022-12-17T08:47:50.546Z,88.88
2022-12-17T08:51:13.242Z,95.90
2022-12-17T08:54:36.222Z,102.17
2022-12-17T08:57:59.118Z,99.80
2022-12-17T09:01:22.227Z,100.50
2022-12-17T09:04:45.083Z,106.72
2022-12-17T09:08:08.214Z,115.95
2022-12-17T09:11:31.013Z,111.05
2022-12-17T09:14:53.879Z,103.53
2022-12-17T09:18:16.776Z,110.07
2022-12-17T09:21:39.907Z,111.45
2022-12-17T09:25:02.974Z,106.95
2022-12-17T09:28:25.829Z,112.38
2022-12-17T09:31:52.539Z,109.18
2022-12-17T09:35:15.724Z,109.20
2022-12-17T09:38:38.610Z,99.95
2022-12-17T09:42:01.474Z,109.22
2022-12-17T09:45:44.929Z,98.60
2022-12-17T09:49:13.770Z,105.18
2022-12-17T09:52:45.914Z,104.07
2022-12-17T09:56:11.153Z,103.97
2022-12-17T09:59:41.268Z,111.78
2022-12-17T10:03:11.988Z,100.70
2022-12-17T10:06:38.452Z,104.68
2022-12-17T10:10:11.063Z,103.10
2022-12-17T10:13:37.157Z,92.88
2022-12-17T10:17:09.963Z,110.65
2022-12-17T10:20:37.727Z,102.03
2022-12-17T10:24:00.691Z,103.40
2022-12-17T10:27:30.028Z,95.22
2022-12-17T10:30:53.536Z,94.00
2022-12-17T10:34:16.524Z,99.07
2022-12-17T10:37:40.101Z,100.63
2022-12-17T10:41:02.984Z,85.78
2022-12-17T10:44:49.369Z,82.72
2022-12-17T10:48:12.087Z,90.05
2022-12-17T10:51:54.999Z,98.30
2022-12-17T10:55:21.404Z,91.53
2022-12-17T10:58:47.228Z,92.65
2022-12-17T11:02:16.902Z,88.63
2022-12-17T11:05:47.051Z,97.00
2022-12-17T11:09:10.353Z,97.78
2022-12-17T11:12:35.240Z,97.47
2022-12-17T11:16:08.121Z,91.75
2022-12-17T11:19:38.229Z,94.07
2022-12-17T11:23:08.854Z,97.93
2022-12-17T11:26:34.515Z,94.18
2022-12-17T11:29:57.283Z,96.93
2022-12-17T11:33:31.557Z,103.00
2022-12-17T11:37:22.775Z,90.03
2022-12-17T11:41:01.608Z,96.22
2022-12-17T11:44:35.909Z,95.78
2022-12-17T11:48:12.883Z,100.75
2022-12-17T11:51:52.799Z,104.30
2022-12-17T11:55:18.748Z,106.65
2022-12-17T11:58:58.441Z,112.00
2022-12-17T12:02:40.447Z,107.75
2022-12-17T12:06:16.330Z,111.65
2022-12-17T12:10:02.113Z,119.30
2022-12-17T12:13:56.241Z,119.05
2022-12-17T12:17:34.598Z,117.78
2022-12-17T12:21:33.687Z,111.20
2022-12-17T12:25:06.074Z,116.47
2022-12-17T12:28:28.641Z,120.88
2022-12-17T12:32:22.629Z,116.70
2022-12-17T12:35:47.323Z,109.00
2022-12-17T12:39:13.192Z,111.85
2022-12-17T12:42:54.164Z,100.07
2022-12-17T12:46:22.813Z,109.63
2022-12-17T12:49:55.467Z,117.25
2022-12-17T12:53:18.745Z,108.65
2022-12-17T12:56:52.817Z,108.28
2022-12-17T13:04:07.896Z,106.85
2022-12-17T13:07:22.761Z,104.03
2022-12-17T13:10:31.778Z,110.60
2022-12-17T13:13:55.972Z,105.68
2022-12-17T13:17:18.689Z,107.07
2022-12-17T13:20:29.511Z,104.05
2022-12-17T13:23:39.231Z,101.40
2022-12-17T13:26:45.194Z,99.82
2022-12-17T13:29:49.174Z,106.18
2022-12-17T13:33:26.113Z,109.05
2022-12-17T13:36:52.947Z,102.75
2022-12-17T13:40:40.731Z,104.85
2022-12-17T13:43:48.064Z,102.70
2022-12-17T13:46:54.276Z,96.90
2022-12-17T13:53:24.754Z,109.55
2022-12-17T13:56:30.420Z,105.53
2022-12-17T13:59:34.325Z,110.18
2022-12-17T14:02:39.259Z,109.40
2022-12-17T14:05:44.610Z,105.63
2022-12-17T14:08:51.051Z,99.97
2022-12-17T14:12:13.338Z,97.85
2022-12-17T14:15:26.275Z,102.30
2022-12-17T14:18:30.377Z,106.10
2022-12-17T14:21:37.295Z,97.95
2022-12-17T14:24:41.714Z,103.45
2022-12-17T14:27:53.366Z,107.85
2022-12-17T14:34:42.730Z,109.30
2022-12-17T14:37:47.013Z,102.68
2022-12-17T14:40:51.922Z,113.68
2022-12-17T14:43:58.275Z,105.03
2022-12-17T14:47:19.799Z,105.82
2022-12-17T14:50:31.475Z,106.80
2022-12-17T14:53:35.709Z,112.78
2022-12-17T14:56:41.519Z,121.95
2022-12-17T14:59:45.670Z,110.18
2022-12-17T15:02:55.167Z,105.30
2022-12-17T15:06:05.985Z,109.28
2022-12-17T15:09:12.074Z,104.50
2022-12-17T15:12:16.649Z,113.18
2022-12-17T15:15:21.936Z,126.13
2022-12-17T15:18:25.954Z,115.32
2022-12-17T15:21:30.457Z,113.93
2022-12-17T15:24:34.808Z,115.93
2022-12-17T15:27:39.132Z,112.70
2022-12-17T15:30:43.994Z,114.70
2022-12-17T15:33:48.114Z,120.30
2022-12-17T15:36:52.286Z,113.47
2022-12-17T15:39:59.418Z,113.72
2022-12-17T15:43:13.654Z,119.30
2022-12-17T15:46:18.402Z,109.40
2022-12-17T15:49:22.903Z,111.20
2022-12-17T15:52:27.459Z,120.22
2022-12-17T15:55:32.139Z,103.43
2022-12-17T15:58:36.696Z,111.72
2022-12-17T16:01:41.239Z,110.03
2022-12-17T16:04:45.155Z,103.65
2022-12-17T16:07:50.619Z,109.28
2022-12-17T16:10:54.778Z,113.60
2022-12-17T16:13:58.612Z,111.55
2022-12-17T16:17:03.158Z,106.97
2022-12-17T16:20:07.677Z,111.15
2022-12-17T16:23:12.037Z,112.78
2022-12-17T16:26:15.964Z,113.88
2022-12-17T16:29:20.051Z,114.40
2022-12-17T16:32:24.489Z,119.15
2022-12-17T16:35:28.591Z,110.65
2022-12-17T16:38:33.910Z,110.63
2022-12-17T16:41:38.268Z,111.38
2022-12-17T16:44:42.383Z,107.97
2022-12-17T16:47:46.497Z,136.88
2022-12-17T16:50:51.109Z,123.28
2022-12-17T16:53:56.903Z,117.80
2022-12-17T16:57:01.839Z,123.10
2022-12-17T17:00:06.594Z,115.00
2022-12-17T17:03:10.889Z,121.72
2022-12-17T17:06:15.912Z,130.73
2022-12-17T17:09:21.136Z,116.20
2022-12-17T17:12:26.683Z,118.43
2022-12-17T17:15:31.281Z,135.85
2022-12-17T17:18:36.045Z,123.88
2022-12-17T17:21:42.328Z,127.72
2022-12-17T17:24:46.493Z,129.32
2022-12-17T17:27:50.461Z,129.73
2022-12-17T17:30:59.371Z,137.38
2022-12-17T17:34:10.163Z,135.57
2022-12-17T17:37:14.124Z,133.15
2022-12-17T17:40:18.687Z,133.20
2022-12-17T17:43:23.076Z,148.10
2022-12-17T17:46:28.842Z,135.25
2022-12-17T17:49:32.856Z,129.93
2022-12-17T17:52:37.071Z,125.90
2022-12-17T17:55:41.520Z,138.85
2022-12-17T17:58:48.332Z,145.00
2022-12-17T18:01:52.540Z,132.15
2022-12-17T18:04:58.641Z,131.13
2022-12-17T18:08:04.228Z,135.75
2022-12-17T18:11:11.293Z,130.88
2022-12-17T18:14:15.182Z,142.10
2022-12-17T18:17:19.277Z,147.18
2022-12-17T18:20:23.627Z,158.35
2022-12-17T18:23:27.789Z,140.70
2022-12-17T18:26:37.831Z,135.40
2022-12-17T18:29:41.726Z,140.88
2022-12-17T18:32:48.982Z,142.98
2022-12-17T18:35:52.984Z,158.57
2022-12-17T18:39:02.888Z,147.70
2022-12-17T18:42:25.494Z,146.18
2022-12-17T18:45:29.525Z,159.33
2022-12-17T18:48:33.770Z,149.57
2022-12-17T18:51:39.418Z,145.40
2022-12-17T18:54:43.545Z,144.25
2022-12-17T18:57:47.537Z,133.13
2022-12-17T19:00:51.971Z,134.82
2022-12-17T19:03:58.041Z,136.88
2022-12-17T19:07:02.204Z,132.88
2022-12-17T19:10:06.865Z,151.68
2022-12-17T19:13:10.899Z,145.50
2022-12-17T19:16:21.191Z,148.05
2022-12-17T19:19:26.233Z,148.63
2022-12-17T19:22:30.475Z,148.00
2022-12-17T19:25:34.388Z,149.18
2022-12-17T19:28:43.182Z,153.23
2022-12-17T19:31:47.989Z,142.02
2022-12-17T19:34:52.395Z,142.75
2022-12-17T19:37:56.871Z,145.98
2022-12-17T19:41:10.723Z,152.32
2022-12-17T19:44:16.222Z,153.43
2022-12-17T19:47:20.561Z,142.93
2022-12-17T19:50:24.593Z,141.15
2022-12-17T19:53:30.172Z,129.50
2022-12-17T19:56:34.332Z,137.05
2022-12-17T19:59:38.442Z,136.40
2022-12-17T20:02:42.827Z,129.20
2022-12-17T20:05:47.628Z,140.02
2022-12-17T20:08:51.862Z,124.63
2022-12-17T20:11:55.952Z,130.93
2022-12-17T20:15:00.218Z,135.05
2022-12-17T20:18:04.914Z,128.60
2022-12-17T20:21:09.098Z,150.95
2022-12-17T20:24:14.463Z,141.43
2022-12-17T20:27:18.225Z,137.10
2022-12-17T20:30:23.983Z,165.55
2022-12-17T20:33:28.453Z,164.48
2022-12-17T20:36:33.112Z,153.48
2022-12-17T20:39:36.967Z,155.80
2022-12-17T20:42:40.959Z,140.80
2022-12-17T20:45:50.284Z,143.75
2022-12-17T20:48:54.444Z,134.70
2022-12-17T20:51:59.644Z,137.52
2022-12-17T20:55:04.294Z,129.35
2022-12-17T20:58:08.674Z,132.75
2022-12-17T21:01:18.925Z,119.30
2022-12-17T21:04:23.512Z,119.90
2022-12-17T21:07:27.590Z,113.53
2022-12-17T21:10:31.437Z,120.07
2022-12-17T21:13:36.177Z,131.10
2022-12-17T21:16:41.774Z,119.97
2022-12-17T21:19:45.997Z,117.43
2022-12-17T21:22:50.213Z,116.18
2022-12-17T21:26:13.904Z,118.90
2022-12-17T21:29:18.498Z,110.63
2022-12-17T21:32:22.702Z,114.07
2022-12-17T21:35:27.223Z,119.72
2022-12-17T21:38:32.378Z,111.78
2022-12-17T21:41:43.208Z,114.38
2022-12-17T21:44:49.278Z,107.88
2022-12-17T21:47:53.413Z,111.93
2022-12-17T21:50:57.585Z,110.28
2022-12-17T21:54:08.614Z,101.82
2022-12-17T21:57:13.771Z,104.85
2022-12-17T22:00:18.534Z,96.15
2022-12-17T22:03:22.831Z,98.47
2022-12-17T22:06:31.102Z,96.30
2022-12-17T22:10:05.396Z,98.55
2022-12-17T22:13:24.261Z,101.25
2022-12-17T22:16:34.967Z,95.60
2022-12-17T22:19:40.035Z,98.80
2022-12-17T22:22:45.397Z,104.03
2022-12-17T22:25:49.580Z,96.82
2022-12-17T22:28:55.946Z,100.18
2022-12-17T22:32:18.619Z,97.40
2022-12-17T22:36:11.374Z,95.93
2022-12-17T22:41:59.597Z,91.82
2022-12-17T22:44:49.042Z,93.00
2022-12-17T22:46:02.314Z,91.38
2022-12-17T22:49:06.688Z,88.68
2022-12-17T22:52:10.927Z,87.85
2022-12-17T22:55:15.135Z,79.82
2022-12-17T22:58:19.687Z,84.47
2022-12-17T23:01:24.192Z,80.68
2022-12-17T23:04:28.335Z,76.10
2022-12-17T23:07:32.458Z,80.40
2022-12-17T23:10:36.424Z,77.40
2022-12-17T23:13:41.538Z,81.57
2022-12-17T23:16:46.023Z,84.03
2022-12-17T23:19:50.200Z,83.38
2022-12-17T23:22:55.212Z,82.25
2022-12-17T23:26:06.122Z,89.70
2022-12-17T23:29:19.125Z,80.75
2022-12-17T23:32:23.412Z,88.85
2022-12-17T23:35:27.530Z,85.53
2022-12-17T23:38:34.631Z,86.00
2022-12-17T23:41:38.429Z,97.82
2022-12-17T23:44:42.564Z,89.75
2022-12-17T23:47:46.561Z,94.78
2022-12-17T23:50:50.710Z,93.90
2022-12-17T23:53:55.282Z,87.97
2022-12-17T23:56:59.462Z,93.72
